Time;durP1;ratioP1;P1;durP2;ratioP2;P2;SDS_P1;SDS_P2;PMS_P1;PMS_P2;Temp;Humidity;BMP_temperature;BMP_pressure;BME280_temperature;BME280_humidity;BME280_pressure;Samples;Min_cycle;Max_cycle;Signal;HPM_P1;HPM_P2
2022/07/15 00:02:08;;;;;;;6.07;5.78;;;;;;;14.95;85.07;101534.50;6022169;23;20101;-69
2022/07/15 00:04:36;;;;;;;4.88;4.68;;;;;;;14.76;85.10;101506.47;5995269;23;20055;-69
2022/07/15 00:07:03;;;;;;;6.25;5.95;;;;;;;14.71;86.11;101515.59;6020913;23;20082;-69
2022/07/15 00:12:15;;;;;;;4.85;4.65;;;;;;;14.63;87.09;101547.72;6017063;23;20026;-70
2022/07/15 00:14:42;;;;;;;4.80;4.60;;;;;;;14.72;87.85;101522.59;6028625;23;20097;-69
2022/07/15 00:17:08;;;;;;;4.90;4.70;;;;;;;14.71;87.97;101534.97;6028454;23;20255;-69
2022/07/15 00:19:35;;;;;;;5.00;4.80;;;;;;;14.66;88.71;101522.94;6030412;23;20086;-69
2022/07/15 00:22:02;;;;;;;6.55;6.25;;;;;;;14.63;88.15;101538.94;5996865;23;20018;-70
2022/07/15 00:24:29;;;;;;;5.00;4.80;;;;;;;14.62;88.25;101546.03;6023583;23;20062;-70
2022/07/15 00:26:56;;;;;;;6.63;6.32;;;;;;;14.66;87.67;101529.06;5993382;23;20053;-69
2022/07/15 00:29:23;;;;;;;4.90;4.70;;;;;;;14.66;88.25;101558.13;6030769;23;20291;-70
2022/07/15 00:31:49;;;;;;;5.53;5.28;;;;;;;14.66;89.28;101560.78;5998495;23;20324;-70
2022/07/15 00:34:16;;;;;;;4.93;4.72;;;;;;;14.40;88.96;101501.44;6026043;23;20641;-70
2022/07/15 00:36:44;;;;;;;4.85;4.65;;;;;;;14.75;88.44;101541.78;5996494;23;20026;-70
2022/07/15 00:39:10;;;;;;;5.13;4.93;;;;;;;14.73;87.80;101527.81;6022040;23;20098;-69
2022/07/15 00:41:38;;;;;;;5.07;4.88;;;;;;;14.85;88.17;101528.03;6025609;23;20567;-70
2022/07/15 00:44:05;;;;;;;4.80;4.60;;;;;;;14.91;87.74;101548.81;6023231;23;20038;-70
2022/07/15 00:46:34;;;;;;;5.22;5.03;;;;;;;14.94;87.27;101556.59;6033521;23;20034;-70
2022/07/15 00:49:03;;;;;;;6.32;6.03;;;;;;;14.92;87.19;101543.44;6022984;23;20031;-69
2022/07/15 00:51:41;;;;;;;5.00;4.80;;;;;;;14.91;88.33;101560.28;6028844;23;20264;-69
2022/07/15 00:54:10;;;;;;;6.65;6.35;;;;;;;14.88;87.71;101580.72;6019615;23;20038;-70
2022/07/15 00:56:39;;;;;;;4.68;4.47;;;;;;;14.85;87.97;101549.16;6024921;23;20050;-69
2022/07/15 00:59:06;;;;;;;6.40;6.10;;;;;;;14.80;88.32;101541.50;6021907;23;20089;-69
2022/07/15 01:01:35;;;;;;;4.80;4.60;;;;;;;14.74;88.79;101577.06;6022547;23;20026;-69
2022/07/15 01:04:03;;;;;;;6.85;6.55;;;;;;;14.69;90.77;101514.84;6015218;23;20338;-69
2022/07/15 01:06:30;;;;;;;4.90;4.70;;;;;;;14.69;90.81;101538.59;6026049;23;20047;-69
2022/07/15 01:08:56;;;;;;;6.35;6.05;;;;;;;14.59;89.72;101582.31;6020686;23;20778;-69
2022/07/15 01:11:23;;;;;;;5.20;4.90;;;;;;;14.58;90.82;101576.19;5997399;23;20061;-69
2022/07/15 01:13:50;;;;;;;5.20;4.97;;;;;;;14.63;90.37;101555.66;6020213;23;20078;-69
2022/07/15 01:16:16;;;;;;;5.93;5.65;;;;;;;14.78;90.57;101535.47;6048076;23;20336;-69
2022/07/15 01:18:43;;;;;;;4.85;4.65;;;;;;;14.83;89.82;101561.63;6028099;23;20023;-70
2022/07/15 01:21:09;;;;;;;7.18;6.78;;;;;;;14.71;90.97;101563.16;6027818;23;20022;-70
2022/07/15 01:23:40;;;;;;;4.93;4.72;;;;;;;14.54;90.81;101532.38;6032639;23;20023;-70
2022/07/15 01:26:06;;;;;;;5.30;5.10;;;;;;;14.70;92.69;101562.31;6032266;23;20315;-69
2022/07/15 01:28:33;;;;;;;4.90;4.60;;;;;;;14.68;93.03;101600.34;6029271;23;20045;-70
2022/07/15 01:31:00;;;;;;;4.97;4.78;;;;;;;14.49;94.12;101552.88;6031041;23;20019;-70
2022/07/15 01:33:26;;;;;;;4.85;4.65;;;;;;;14.61;94.08;101626.22;6022261;23;20031;-70
2022/07/15 01:35:54;;;;;;;6.35;6.05;;;;;;;14.44;93.70;101569.00;6023950;23;20508;-69
2022/07/15 01:38:21;;;;;;;4.95;4.75;;;;;;;14.49;94.11;101572.25;6028803;23;20082;-69
2022/07/15 01:40:47;;;;;;;5.10;4.90;;;;;;;14.65;93.47;101618.97;6034005;23;20147;-69
2022/07/15 01:43:14;;;;;;;4.93;4.72;;;;;;;14.70;92.71;101598.47;6028792;23;20019;-69
2022/07/15 01:45:45;;;;;;;4.90;4.70;;;;;;;14.62;93.74;101574.25;6000979;23;20351;-69
2022/07/15 01:51:00;;;;;;;6.45;6.15;;;;;;;14.69;93.80;101583.53;6031976;23;20019;-69
2022/07/15 01:53:28;;;;;;;4.78;4.57;;;;;;;14.54;94.75;101572.84;6020605;23;20039;-70
2022/07/15 01:55:54;;;;;;;5.45;5.25;;;;;;;14.72;94.36;101608.00;6030834;23;20094;-69
2022/07/15 01:58:22;;;;;;;4.88;4.68;;;;;;;14.80;93.54;101601.44;6017807;23;20034;-69
2022/07/15 02:00:49;;;;;;;4.97;4.78;;;;;;;14.82;93.62;101581.91;6031134;23;20035;-69
2022/07/15 02:03:15;;;;;;;4.75;4.55;;;;;;;14.91;93.26;101650.13;6023482;23;20058;-69
2022/07/15 02:05:42;;;;;;;5.03;4.82;;;;;;;14.99;92.08;101630.34;6030330;23;20193;-69
2022/07/15 02:08:09;;;;;;;6.07;5.78;;;;;;;14.76;91.63;101567.25;6023350;23;20023;-69
2022/07/15 02:10:41;;;;;;;5.10;4.80;;;;;;;14.98;91.66;101602.22;6027018;23;20042;-69
2022/07/15 02:13:13;;;;;;;5.68;5.47;;;;;;;14.92;92.53;101566.41;6016236;23;20022;-69
2022/07/15 02:15:41;;;;;;;4.90;4.70;;;;;;;14.92;93.20;101593.66;6036847;23;20334;-68
2022/07/15 02:18:10;;;;;;;5.18;4.97;;;;;;;14.91;93.51;101572.59;6016961;23;20784;-69
2022/07/15 02:20:37;;;;;;;4.82;4.63;;;;;;;14.90;93.36;101602.63;6030919;23;20286;-69
2022/07/15 02:23:03;;;;;;;6.20;5.90;;;;;;;14.88;93.69;101591.28;6013321;23;20014;-70
2022/07/15 02:25:33;;;;;;;4.80;4.60;;;;;;;14.84;93.55;101629.41;6036992;23;20074;-69
2022/07/15 02:28:03;;;;;;;6.30;6.00;;;;;;;14.75;94.61;101565.56;6018667;23;20037;-68
2022/07/15 02:30:33;;;;;;;5.00;4.80;;;;;;;14.64;95.38;101581.16;6027034;23;20104;-69
2022/07/15 02:33:00;;;;;;;6.18;5.88;;;;;;;14.40;96.06;101575.38;6019090;23;20049;-69
2022/07/15 02:35:27;;;;;;;4.80;4.60;;;;;;;14.39;95.25;101555.19;6026039;23;20030;-69
2022/07/15 02:37:53;;;;;;;5.55;5.35;;;;;;;14.56;95.85;101581.56;6026055;23;20006;-69
2022/07/15 02:40:20;;;;;;;6.57;6.28;;;;;;;14.56;95.81;101572.78;6024825;23;20018;-69
2022/07/15 02:42:52;;;;;;;5.20;4.90;;;;;;;14.45;94.65;101569.84;6021721;23;20018;-69
2022/07/15 02:45:20;;;;;;;4.82;4.63;;;;;;;14.60;94.85;101579.63;6034529;23;20024;-69
2022/07/15 02:47:47;;;;;;;4.80;4.60;;;;;;;14.40;94.39;101545.50;6025899;23;20114;-69
2022/07/15 02:50:15;;;;;;;4.80;4.60;;;;;;;14.41;94.70;101560.38;6031702;23;20492;-68
2022/07/15 02:52:42;;;;;;;5.05;4.85;;;;;;;14.42;94.83;101573.50;6018631;23;20023;-69
2022/07/15 02:55:10;;;;;;;5.60;5.40;;;;;;;14.43;96.61;101577.00;6026861;23;20051;-69
2022/07/15 02:57:37;;;;;;;5.03;4.82;;;;;;;14.11;97.20;101561.09;6024847;23;20014;-69
2022/07/15 03:00:06;;;;;;;6.85;6.55;;;;;;;14.34;97.04;101581.00;6026642;23;20102;-69
2022/07/15 03:02:32;;;;;;;4.70;4.50;;;;;;;14.11;98.96;101561.09;6018606;23;20652;-69
2022/07/15 03:05:00;;;;;;;6.55;6.25;;;;;;;14.25;98.54;101615.81;6022793;23;20073;-69
2022/07/15 03:07:30;;;;;;;5.00;4.80;;;;;;;14.23;98.55;101584.22;6025658;23;20416;-68
2022/07/15 03:09:57;;;;;;;6.18;5.88;;;;;;;13.98;98.53;101554.78;6024450;23;20046;-69
2022/07/15 03:12:23;;;;;;;4.80;4.60;;;;;;;14.16;98.98;101590.75;6026898;23;20648;-69
2022/07/15 03:14:50;;;;;;;5.03;4.82;;;;;;;14.16;98.32;101615.34;5996216;23;20413;-69
2022/07/15 03:17:17;;;;;;;5.28;4.97;;;;;;;14.08;98.10;101592.94;6031511;23;20026;-69
2022/07/15 03:19:43;;;;;;;4.70;4.50;;;;;;;13.98;98.37;101568.81;6035400;23;20094;-69
2022/07/15 03:22:10;;;;;;;4.80;4.60;;;;;;;14.05;98.17;101596.59;6018213;23;20448;-69
2022/07/15 03:24:37;;;;;;;4.68;4.47;;;;;;;14.18;97.39;101614.44;6040441;23;20030;-69
2022/07/15 03:27:03;;;;;;;5.05;4.85;;;;;;;14.03;97.34;101582.63;6025770;23;20049;-68
2022/07/15 03:29:29;;;;;;;5.10;4.80;;;;;;;14.20;97.17;101621.34;6038775;23;20074;-69
2022/07/15 03:31:56;;;;;;;6.00;5.70;;;;;;;14.23;97.61;101607.13;6015998;23;20022;-69
2022/07/15 03:34:26;;;;;;;4.75;4.55;;;;;;;14.10;97.64;101599.00;6023013;23;20022;-69
2022/07/15 03:36:53;;;;;;;5.35;5.15;;;;;;;14.20;97.29;101615.22;6025185;23;20090;-69
2022/07/15 03:39:21;;;;;;;4.88;4.68;;;;;;;14.04;98.20;101607.25;6015173;23;20023;-69
2022/07/15 03:41:47;;;;;;;5.20;5.00;;;;;;;14.35;97.22;101662.78;6019503;23;20011;-70
2022/07/15 03:44:14;;;;;;;5.15;4.95;;;;;;;14.35;96.62;101639.03;6030362;23;20034;-69
2022/07/15 03:46:41;;;;;;;4.90;4.70;;;;;;;14.39;96.45;101628.28;6024457;23;20023;-69
2022/07/15 03:49:07;;;;;;;5.10;4.90;;;;;;;14.34;96.15;101639.94;6030747;23;20370;-67
2022/07/15 03:51:34;;;;;;;4.90;4.70;;;;;;;14.39;95.33;101641.47;6016517;23;20229;-70
2022/07/15 03:54:02;;;;;;;6.25;5.95;;;;;;;14.43;95.91;101738.09;6019702;23;20038;-69
2022/07/15 03:56:30;;;;;;;4.90;4.70;;;;;;;14.43;95.36;101656.22;6025159;23;20026;-71
2022/07/15 03:58:57;;;;;;;5.43;5.22;;;;;;;14.48;95.74;101668.25;6020410;23;20070;-71
2022/07/15 04:01:23;;;;;;;4.68;4.47;;;;;;;14.51;95.48;101675.16;6025614;23;20035;-71
2022/07/15 04:03:51;;;;;;;4.85;4.65;;;;;;;14.45;95.06;101651.72;5998230;23;20022;-71
2022/07/15 04:06:19;;;;;;;4.70;4.50;;;;;;;14.56;94.79;101663.44;6024127;23;20025;-71
2022/07/15 04:08:47;;;;;;;4.63;4.43;;;;;;;14.82;94.35;101687.63;6027915;23;20003;-71
2022/07/15 04:11:13;;;;;;;4.80;4.60;;;;;;;15.03;93.05;101712.00;6025929;23;20643;-70
2022/07/15 04:13:41;;;;;;;4.90;4.70;;;;;;;15.16;91.75;101725.44;6027106;23;20023;-71
2022/07/15 04:16:09;;;;;;;5.00;4.80;;;;;;;15.28;90.41;101710.69;6006873;23;20105;-71
2022/07/15 04:18:35;;;;;;;4.82;4.63;;;;;;;15.11;88.40;101608.50;6002115;23;20223;-71
2022/07/15 04:21:02;;;;;;;6.32;6.03;;;;;;;16.83;82.97;101814.72;6024923;23;20015;-71
2022/07/15 04:23:29;;;;;;;5.00;4.80;;;;;;;17.46;79.01;101819.66;6003503;23;20093;-71
2022/07/15 04:25:56;;;;;;;6.70;6.40;;;;;;;18.00;74.34;101841.91;6017164;23;20019;-71
2022/07/15 04:28:23;;;;;;;5.40;5.10;;;;;;;18.68;72.02;101876.34;5996468;23;20266;-71
2022/07/15 04:30:51;;;;;;;5.40;5.15;;;;;;;18.64;68.22;101837.63;6021768;23;20034;-71
2022/07/15 04:33:17;;;;;;;5.40;5.10;;;;;;;19.23;66.87;101870.88;6027617;23;20377;-71
2022/07/15 04:35:44;;;;;;;5.10;4.90;;;;;;;19.82;64.34;101886.22;6029743;23;20034;-71
2022/07/15 04:38:10;;;;;;;5.30;5.10;;;;;;;19.88;63.51;101902.59;6024648;23;20025;-71
2022/07/15 04:40:39;;;;;;;5.80;5.50;;;;;;;19.51;61.86;101827.16;6030907;23;20093;-72
2022/07/15 04:43:11;;;;;;;5.63;5.43;;;;;;;18.92;64.15;101810.00;6017041;23;20031;-71
2022/07/15 04:45:37;;;;;;;5.35;5.15;;;;;;;18.81;64.73;101814.38;6025839;23;20408;-71
2022/07/15 04:50:45;;;;;;;6.57;6.28;;;;;;;18.64;66.88;101813.69;6023834;23;20097;-71
2022/07/15 04:50:53;;;;;;;5.25;5.05;;;;;;;18.25;67.94;101783.53;6020401;23;20078;-73
2022/07/15 04:53:20;;;;;;;5.30;5.10;;;;;;;17.47;69.43;101727.59;6020078;23;20016;-72
2022/07/15 04:55:47;;;;;;;6.07;5.78;;;;;;;17.84;70.67;101813.72;6025779;23;20506;-72
2022/07/15 04:58:14;;;;;;;5.30;5.10;;;;;;;18.06;69.27;101791.91;6022820;23;20554;-72
2022/07/15 05:00:45;;;;;;;5.20;5.00;;;;;;;17.96;70.33;101792.59;6030377;23;20155;-72
2022/07/15 05:03:13;;;;;;;5.30;5.10;;;;;;;18.06;69.82;101788.38;5997815;23;20038;-72
2022/07/15 05:05:40;;;;;;;5.30;5.10;;;;;;;17.44;70.20;101715.41;6026404;23;20042;-72
2022/07/15 05:08:06;;;;;;;6.32;6.03;;;;;;;17.54;71.64;101774.88;6022131;23;20030;-72
2022/07/15 05:10:34;;;;;;;5.13;4.93;;;;;;;17.25;73.17;101758.16;6023083;23;20491;-72
2022/07/15 05:13:03;;;;;;;6.47;6.18;;;;;;;16.83;74.21;101721.94;6027468;23;20014;-72
2022/07/15 05:15:29;;;;;;;5.10;4.90;;;;;;;16.71;76.41;101737.59;6018485;23;20033;-72
2022/07/15 05:17:55;;;;;;;6.57;6.28;;;;;;;16.67;75.96;101743.19;6027688;23;20034;-72
2022/07/15 05:20:22;;;;;;;5.65;5.35;;;;;;;16.42;77.31;101731.44;6035029;23;20018;-71
2022/07/15 05:22:49;;;;;;;5.65;5.35;;;;;;;16.72;76.57;101767.63;6023858;23;20029;-72
2022/07/15 05:25:16;;;;;;;5.10;4.90;;;;;;;16.86;76.82;101780.94;6015742;23;20080;-72
2022/07/15 05:27:42;;;;;;;5.22;5.03;;;;;;;16.88;76.33;101744.56;6025877;23;20420;-71
2022/07/15 05:30:09;;;;;;;6.10;5.75;;;;;;;16.88;75.71;101749.03;6031305;23;20479;-71
2022/07/15 05:32:35;;;;;;;5.15;4.95;;;;;;;17.39;74.08;101775.00;6026723;23;20888;-71
2022/07/15 05:35:02;;;;;;;5.47;5.20;;;;;;;17.85;72.41;101831.34;6023756;23;20065;-72
2022/07/15 05:37:28;;;;;;;5.13;4.93;;;;;;;17.59;71.91;101782.53;6029458;23;20011;-72
2022/07/15 05:39:57;;;;;;;6.53;6.22;;;;;;;17.56;72.17;101777.44;6021925;23;20094;-69
2022/07/15 05:42:24;;;;;;;5.20;5.00;;;;;;;17.43;73.33;101777.38;6027322;23;20045;-72
2022/07/15 05:44:50;;;;;;;5.72;5.47;;;;;;;17.28;74.09;101783.63;5991671;23;20460;-72
2022/07/15 05:47:17;;;;;;;5.03;4.82;;;;;;;17.04;75.53;101752.41;6028482;23;20033;-72
2022/07/15 05:49:43;;;;;;;5.20;5.00;;;;;;;17.26;75.16;101778.44;6003591;23;20611;-72
2022/07/15 05:52:10;;;;;;;5.13;4.93;;;;;;;17.15;74.62;101763.19;5986922;23;20746;-72
2022/07/15 05:54:39;;;;;;;5.40;5.20;;;;;;;17.39;75.23;101799.75;6031658;23;20011;-72
2022/07/15 05:57:05;;;;;;;5.70;5.20;;;;;;;17.40;73.94;101761.66;6046085;23;20033;-72
2022/07/15 05:59:32;;;;;;;5.20;4.90;;;;;;;17.74;72.35;101800.16;6028570;23;20102;-72
2022/07/15 06:01:58;;;;;;;5.05;4.85;;;;;;;17.73;72.19;101790.47;6029565;23;20017;-71
2022/07/15 06:04:28;;;;;;;5.78;5.47;;;;;;;17.84;72.08;101803.09;6026560;23;20003;-72
2022/07/15 06:06:54;;;;;;;6.10;5.80;;;;;;;18.27;71.12;101834.78;5996895;23;20030;-71
2022/07/15 06:09:22;;;;;;;5.38;5.18;;;;;;;18.79;68.64;101849.03;6003208;23;20083;-71
2022/07/15 06:11:48;;;;;;;6.65;5.20;;;;;;;19.27;66.24;101885.66;6016032;23;20007;-71
2022/07/15 06:14:15;;;;;;;5.65;5.35;;;;;;;19.80;62.12;101877.50;6040511;23;20015;-71
2022/07/15 06:16:42;;;;;;;5.70;5.40;;;;;;;19.87;62.78;101876.94;5972162;23;20071;-73
2022/07/15 06:19:10;;;;;;;5.38;5.18;;;;;;;20.14;62.17;101891.84;6003947;23;20018;-73
2022/07/15 06:21:37;;;;;;;5.25;5.05;;;;;;;20.39;59.91;101890.06;5973648;23;20140;-71
2022/07/15 06:24:04;;;;;;;6.80;6.50;;;;;;;20.15;59.82;101850.09;5993175;23;20011;-71
2022/07/15 06:26:30;;;;;;;6.60;6.30;;;;;;;20.39;59.47;101848.25;6002730;23;20081;-71
2022/07/15 06:28:57;;;;;;;6.82;6.53;;;;;;;19.83;59.64;101832.84;5973907;23;20204;-71
2022/07/15 06:31:23;;;;;;;5.90;5.50;;;;;;;19.62;59.52;101813.91;6000422;23;20042;-71
2022/07/15 06:33:50;;;;;;;5.85;5.60;;;;;;;19.80;59.69;101838.38;5996685;23;20062;-71
2022/07/15 06:36:16;;;;;;;5.70;5.40;;;;;;;19.35;60.69;101787.47;5985428;23;20024;-70
2022/07/15 06:38:43;;;;;;;5.70;5.30;;;;;;;19.10;61.50;101775.94;6001623;23;20019;-71
2022/07/15 06:41:10;;;;;;;5.97;5.68;;;;;;;18.58;63.87;101737.00;5985930;23;20068;-71
2022/07/15 06:43:36;;;;;;;5.18;4.97;;;;;;;18.22;64.87;101725.31;5995354;23;20521;-73
2022/07/15 06:46:03;;;;;;;6.70;6.40;;;;;;;17.82;65.72;101698.75;5988243;23;20033;-73
2022/07/15 06:48:29;;;;;;;5.72;5.43;;;;;;;17.71;65.84;101702.09;5997535;23;20024;-72
2022/07/15 06:50:56;;;;;;;6.32;6.03;;;;;;;17.49;67.06;101700.00;5988599;23;20050;-72
2022/07/15 06:53:22;;;;;;;5.70;5.38;;;;;;;17.56;68.56;101721.72;6000595;23;20531;-72
2022/07/15 06:55:48;;;;;;;5.53;5.22;;;;;;;17.54;66.05;101716.50;5968685;23;20028;-73
2022/07/15 06:58:15;;;;;;;5.35;5.15;;;;;;;17.40;67.25;101702.41;5996404;23;20015;-72
2022/07/15 07:00:42;;;;;;;5.30;5.10;;;;;;;17.97;66.11;101757.13;5971915;23;20038;-72
2022/07/15 07:03:08;;;;;;;5.95;5.65;;;;;;;17.39;65.41;101679.50;5994141;23;20422;-72
2022/07/15 07:05:34;;;;;;;5.35;5.15;;;;;;;17.49;65.04;101707.97;5983056;23;20082;-72
2022/07/15 07:08:01;;;;;;;6.47;6.18;;;;;;;17.55;64.79;101727.94;6028670;23;20028;-73
2022/07/15 07:10:27;;;;;;;5.18;4.97;;;;;;;17.35;62.94;101715.97;5996975;23;20011;-72
2022/07/15 07:12:54;;;;;;;6.07;5.78;;;;;;;17.27;63.21;101719.13;6027176;23;20593;-73
2022/07/15 07:15:23;;;;;;;6.75;6.30;;;;;;;16.80;63.11;101669.06;6023966;23;20033;-73
2022/07/15 07:17:54;;;;;;;5.88;5.63;;;;;;;16.85;64.03;101690.88;6012189;23;20155;-73
2022/07/15 07:20:21;;;;;;;5.50;5.20;;;;;;;16.95;63.90;101697.31;6029869;23;20464;-73
2022/07/15 07:22:47;;;;;;;5.10;4.90;;;;;;;17.19;62.68;101732.03;6023575;23;20023;-71
2022/07/15 07:25:14;;;;;;;5.10;4.90;;;;;;;17.70;62.59;101773.88;6023704;23;20116;-73
2022/07/15 07:27:40;;;;;;;5.50;5.20;;;;;;;17.61;61.65;101732.00;6020332;23;20085;-72
2022/07/15 07:30:08;;;;;;;7.22;6.88;;;;;;;17.82;60.81;101789.03;6018359;23;20549;-72
2022/07/15 07:32:34;;;;;;;5.47;5.15;;;;;;;18.07;58.40;101745.78;6024653;23;20072;-73
2022/07/15 07:35:06;;;;;;;6.97;6.68;;;;;;;19.02;57.75;101841.28;6016761;23;20117;-73
2022/07/15 07:37:37;;;;;;;5.10;4.90;;;;;;;19.20;52.90;101816.03;5996927;23;20023;-73
2022/07/15 07:40:06;;;;;;;6.60;6.30;;;;;;;18.28;51.03;101714.25;5997471;23;20036;-73
2022/07/15 07:42:32;;;;;;;5.38;5.18;;;;;;;18.78;51.46;101794.09;6025535;23;20292;-73
2022/07/15 07:45:00;;;;;;;6.65;6.35;;;;;;;19.08;50.66;101801.81;6043390;23;20023;-73
2022/07/15 07:47:27;;;;;;;5.50;5.30;;;;;;;19.72;50.86;101843.41;6025430;23;20034;-73
2022/07/15 07:49:53;;;;;;;5.30;5.10;;;;;;;20.25;50.37;101846.63;5993809;23;20551;-71
2022/07/15 07:52:20;;;;;;;5.43;5.22;;;;;;;20.31;49.69;101853.31;6025160;23;20077;-71
2022/07/15 07:54:53;;;;;;;5.93;5.65;;;;;;;20.51;50.68;101846.47;6000108;23;20035;-72
2022/07/15 07:57:19;;;;;;;5.10;4.90;;;;;;;20.21;49.57;101849.63;6021935;23;20010;-71
2022/07/15 07:59:46;;;;;;;5.35;5.15;;;;;;;20.36;48.93;101852.94;6021376;23;20030;-72
2022/07/15 08:02:19;;;;;;;5.30;5.10;;;;;;;20.46;48.60;101862.78;6031833;23;20080;-71
2022/07/15 08:04:46;;;;;;;5.25;5.05;;;;;;;20.83;46.68;101796.00;6021730;23;20032;-71
2022/07/15 08:07:12;;;;;;;5.43;5.20;;;;;;;20.09;45.60;101648.84;6018259;23;20014;-72
2022/07/15 08:09:39;;;;;;;5.30;5.10;;;;;;;20.84;44.58;101768.31;6035476;23;20475;-72
2022/07/15 08:12:05;;;;;;;6.68;6.38;;;;;;;20.15;45.74;101709.69;6008697;23;20341;-72
2022/07/15 08:14:32;;;;;;;5.63;5.32;;;;;;;19.93;48.44;101711.31;6025782;23;20035;-71
2022/07/15 08:16:58;;;;;;;6.47;6.18;;;;;;;20.10;48.11;101720.66;6005303;23;20039;-71
2022/07/15 08:19:25;;;;;;;5.32;5.13;;;;;;;19.76;47.57;101678.91;6027383;23;20039;-72
2022/07/15 08:21:52;;;;;;;5.55;5.32;;;;;;;20.06;48.19;101705.03;6001305;23;20086;-72
2022/07/15 08:24:19;;;;;;;5.30;5.10;;;;;;;20.32;46.67;101717.19;6003605;23;20035;-72
2022/07/15 08:26:45;;;;;;;5.75;5.45;;;;;;;20.53;43.51;101738.69;6051721;23;20583;-71
2022/07/15 08:29:12;;;;;;;5.32;5.13;;;;;;;20.39;43.13;101735.41;6028105;23;20635;-72
2022/07/15 08:31:38;;;;;;;5.38;5.18;;;;;;;20.65;43.76;101744.94;6030015;23;20011;-72
2022/07/15 08:34:05;;;;;;;9.23;6.38;;;;;;;20.65;46.99;101752.09;5994713;23;20016;-73
2022/07/15 08:36:32;;;;;;;5.40;5.10;;;;;;;20.88;46.83;101760.94;6028911;23;20044;-73
2022/07/15 08:38:59;;;;;;;6.20;5.90;;;;;;;20.19;48.45;101697.81;6018288;23;20042;-73
2022/07/15 08:41:25;;;;;;;5.45;5.25;;;;;;;19.97;48.98;101692.44;6008321;23;20035;-73
2022/07/15 08:43:52;;;;;;;5.78;5.53;;;;;;;20.06;49.00;101710.38;6024094;23;20019;-73
2022/07/15 08:46:19;;;;;;;7.30;6.90;;;;;;;19.88;47.67;101646.84;6026383;23;20017;-73
2022/07/15 08:48:51;;;;;;;5.40;5.20;;;;;;;20.35;47.17;101717.94;6011963;23;20041;-73
2022/07/15 08:51:23;;;;;;;5.50;5.20;;;;;;;20.00;47.90;101689.53;6021522;23;20085;-71
2022/07/15 08:53:51;;;;;;;5.38;5.18;;;;;;;20.03;48.26;101711.47;6017881;23;20487;-71
2022/07/15 08:56:19;;;;;;;5.40;5.20;;;;;;;20.39;46.23;101722.94;6044850;23;20041;-71
2022/07/15 08:58:46;;;;;;;5.28;5.07;;;;;;;20.36;46.90;101720.47;6018549;23;20011;-71
2022/07/15 09:01:24;;;;;;;5.28;5.07;;;;;;;20.86;47.01;101742.38;5995196;23;20039;-71
2022/07/15 09:03:51;;;;;;;6.43;5.65;;;;;;;21.56;45.29;101790.28;6028268;23;20084;-71
2022/07/15 09:06:38;;;;;;;5.47;5.18;;;;;;;21.90;44.92;101793.69;6022371;23;20412;-71
2022/07/15 09:09:24;;;;;;;6.45;6.15;;;;;;;21.19;43.89;101746.00;6009231;23;20027;-71
2022/07/15 09:12:01;;;;;;;5.97;5.70;;;;;;;20.62;44.00;101710.47;6022640;23;20045;-72
2022/07/15 09:14:42;;;;;;;5.40;5.20;;;;;;;20.08;44.98;101679.13;6030337;23;20050;-71
2022/07/15 09:17:08;;;;;;;6.25;5.70;;;;;;;20.56;45.15;101716.25;6018844;23;20146;-72
2022/07/15 09:20:00;;;;;;;5.15;4.95;;;;;;;20.30;46.12;101694.31;6034200;23;20358;-71
2022/07/15 09:22:33;;;;;;;5.35;5.15;;;;;;;20.28;47.17;101681.09;5990614;23;20471;-71
2022/07/15 09:25:09;;;;;;;6.95;6.65;;;;;;;20.13;46.23;101660.97;6029010;23;20345;-71
2022/07/15 09:27:41;;;;;;;5.40;5.20;;;;;;;20.07;45.92;101664.13;6022294;23;20089;-71
2022/07/15 09:36:21;;;;;;;6.80;6.40;;;;;;;20.26;44.30;101651.03;6022061;23;20030;-71
2022/07/15 09:38:56;;;;;;;5.25;4.95;;;;;;;20.72;43.56;101689.25;6018884;23;20035;-71
2022/07/15 09:41:38;;;;;;;5.50;5.30;;;;;;;21.23;40.92;101733.25;6014346;23;20033;-70
2022/07/15 09:44:13;;;;;;;6.45;6.15;;;;;;;21.21;40.75;101700.47;5997706;23;20022;-70
2022/07/15 09:47:00;;;;;;;5.20;5.00;;;;;;;21.69;39.44;101721.50;6018139;23;20028;-71
2022/07/15 09:49:29;;;;;;;5.55;5.35;;;;;;;21.52;40.01;101722.88;6016019;23;20033;-72
2022/07/15 09:52:01;;;;;;;6.65;6.35;;;;;;;20.77;39.42;101587.50;6021588;23;20730;-73
2022/07/15 09:54:31;;;;;;;5.50;5.30;;;;;;;22.06;40.25;101748.66;6016380;23;20029;-71
2022/07/15 09:57:01;;;;;;;6.55;6.25;;;;;;;22.10;40.16;101735.88;6018646;23;20098;-71
2022/07/15 09:59:29;;;;;;;5.30;5.10;;;;;;;21.60;41.97;101706.22;6016336;23;20026;-71
2022/07/15 10:01:56;;;;;;;6.65;6.07;;;;;;;21.61;41.36;101695.44;6018411;23;20038;-72
2022/07/15 10:04:26;;;;;;;5.53;5.22;;;;;;;21.88;40.32;101718.97;6018934;23;20379;-68
2022/07/15 10:06:54;;;;;;;5.22;5.03;;;;;;;21.58;40.09;101698.34;6020369;23;20234;-71
2022/07/15 10:09:42;;;;;;;5.40;5.20;;;;;;;21.46;39.87;101656.63;6014056;23;20562;-71
2022/07/15 10:12:12;;;;;;;6.45;6.15;;;;;;;21.79;39.91;101679.69;6022698;23;20030;-72
2022/07/15 10:15:11;;;;;;;5.50;5.30;;;;;;;22.60;38.04;101751.28;6023615;23;20030;-72
2022/07/15 10:17:51;;;;;;;5.40;5.20;;;;;;;22.90;39.57;101756.63;6026373;23;20112;-72
2022/07/15 10:20:40;;;;;;;6.00;5.70;;;;;;;23.27;36.80;101776.63;6018653;23;20531;-72
2022/07/15 10:23:23;;;;;;;5.35;5.15;;;;;;;23.22;36.57;101738.72;6032539;23;20488;-71
2022/07/15 10:26:22;;;;;;;5.82;5.55;;;;;;;23.83;37.76;101772.53;6024204;23;20026;-72
2022/07/15 10:29:03;;;;;;;6.47;6.18;;;;;;;23.47;35.88;101716.78;6022522;23;20033;-72
2022/07/15 10:31:31;;;;;;;5.28;5.07;;;;;;;22.87;37.48;101673.06;6028567;23;20011;-72
2022/07/15 10:34:07;;;;;;;6.88;6.57;;;;;;;22.74;38.05;101667.97;5997369;23;20030;-72
2022/07/15 10:36:39;;;;;;;5.40;5.20;;;;;;;22.67;37.83;101666.78;6029694;23;20070;-72
2022/07/15 10:39:08;;;;;;;6.45;6.15;;;;;;;22.53;38.02;101643.09;6024347;23;20090;-71
2022/07/15 10:41:46;;;;;;;5.30;5.10;;;;;;;22.43;38.23;101635.03;6030073;23;20027;-72
2022/07/15 10:44:13;;;;;;;5.30;5.10;;;;;;;22.23;38.62;101628.72;6014279;23;20134;-71
2022/07/15 10:46:39;;;;;;;5.40;5.20;;;;;;;22.50;39.35;101629.00;6029554;23;20152;-71
2022/07/15 10:49:06;;;;;;;6.82;6.53;;;;;;;23.07;37.38;101682.88;6015480;23;20038;-71
2022/07/15 10:51:35;;;;;;;5.30;5.10;;;;;;;23.14;38.36;101677.81;6031912;23;20021;-72
2022/07/15 10:54:02;;;;;;;6.57;6.28;;;;;;;22.93;37.47;101659.13;6026871;23;20046;-71
2022/07/15 10:56:34;;;;;;;5.10;4.90;;;;;;;22.46;38.59;101525.94;6003654;23;20083;-71
2022/07/15 10:59:08;;;;;;;6.68;6.38;;;;;;;23.72;36.90;101709.16;6030212;23;20022;-72
2022/07/15 11:01:35;;;;;;;5.40;5.20;;;;;;;23.81;36.90;101705.66;6015829;23;20018;-72
2022/07/15 11:04:19;;;;;;;10.98;6.95;;;;;;;23.82;36.54;101687.75;6030073;23;20034;-71
2022/07/15 11:07:07;;;;;;;6.03;5.72;;;;;;;23.32;37.28;101651.19;6027973;23;20078;-72
2022/07/15 11:10:04;;;;;;;5.53;5.22;;;;;;;23.83;37.91;101689.44;6032580;23;20125;-71
2022/07/15 11:12:30;;;;;;;5.70;5.50;;;;;;;24.39;36.15;101711.91;6023012;23;20560;-71
2022/07/15 11:15:06;;;;;;;5.80;5.50;;;;;;;24.41;36.39;101689.28;6022094;23;20343;-71
2022/07/15 11:17:32;;;;;;;5.78;5.53;;;;;;;24.58;35.90;101694.94;6020287;23;20046;-71
2022/07/15 11:20:05;;;;;;;6.90;6.60;;;;;;;24.48;36.88;101670.78;6019402;23;20019;-71
2022/07/15 11:22:31;;;;;;;5.60;5.30;;;;;;;23.92;36.45;101608.16;6017188;23;20355;-71
2022/07/15 11:24:58;;;;;;;7.15;6.78;;;;;;;23.40;37.15;101603.13;6016059;23;20034;-70
2022/07/15 11:27:25;;;;;;;5.57;5.38;;;;;;;23.22;36.16;101592.25;6021390;23;20082;-71
2022/07/15 11:29:55;;;;;;;6.13;5.80;;;;;;;23.70;38.42;101636.94;6015015;23;20170;-72
2022/07/15 11:32:22;;;;;;;5.90;5.60;;;;;;;24.14;36.76;101659.75;6021408;23;20043;-72
2022/07/15 11:34:52;;;;;;;5.78;5.53;;;;;;;24.13;36.12;101652.69;6024515;23;20046;-71
2022/07/15 11:37:24;;;;;;;5.28;5.07;;;;;;;23.16;36.77;101566.06;6027102;23;20368;-71
2022/07/15 11:40:05;;;;;;;5.90;5.60;;;;;;;23.54;37.52;101599.16;6010073;23;20130;-72
2022/07/15 11:45:35;;;;;;;5.45;5.25;;;;;;;23.55;36.49;101522.28;6037638;23;20023;-72
2022/07/15 11:48:06;;;;;;;7.32;7.00;;;;;;;23.57;37.27;101595.34;6001564;23;20027;-73